sensor_id;sensor_type;location;lat;lon;timestamp;temperature;humidity
4505;DHT22;2265;48.794;9.520;2023-04-01T00:02:02;9.90;98.00
4505;DHT22;2265;48.794;9.520;2023-04-01T00:04:30;9.90;98.00
4505;DHT22;2265;48.794;9.520;2023-04-01T00:06:57;9.90;98.00
4505;DHT22;2265;48.794;9.520;2023-04-01T00:09:25;9.90;98.00
4505;DHT22;2265;48.794;9.520;2023-04-01T00:11:55;9.90;98.00
4505;DHT22;2265;48.794;9.520;2023-04-01T00:14:23;9.80;98.00
4505;DHT22;2265;48.794;9.520;2023-04-01T00:16:50;9.80;98.00
4505;DHT22;2265;48.794;9.520;2023-04-01T00:19:18;9.80;98.00
4505;DHT22;2265;48.794;9.520;2023-04-01T00:21:46;9.80;98.00
4505;DHT22;2265;48.794;9.520;2023-04-01T00:24:13;9.80;98.00
4505;DHT22;2265;48.794;9.520;2023-04-01T00:26:40;9.80;98.00
4505;DHT22;2265;48.794;9.520;2023-04-01T00:29:11;9.80;98.00
4505;DHT22;2265;48.794;9.520;2023-04-01T00:31:38;9.80;98.00
4505;DHT22;2265;48.794;9.520;2023-04-01T00:34:05;9.80;98.00
4505;DHT22;2265;48.794;9.520;2023-04-01T00:36:33;9.80;98.00
4505;DHT22;2265;48.794;9.520;2023-04-01T00:39:00;9.80;98.00
4505;DHT22;2265;48.794;9.520;2023-04-01T00:41:28;9.80;98.00
4505;DHT22;2265;48.794;9.520;2023-04-01T00:44:17;9.80;98.00
4505;DHT22;2265;48.794;9.520;2023-04-01T00:46:45;9.90;98.00
4505;DHT22;2265;48.794;9.520;2023-04-01T00:49:12;9.80;98.00
4505;DHT22;2265;48.794;9.520;2023-04-01T00:51:41;9.80;98.00
4505;DHT22;2265;48.794;9.520;2023-04-01T00:54:09;9.80;98.00
4505;DHT22;2265;48.794;9.520;2023-04-01T00:56:39;9.80;98.00
4505;DHT22;2265;48.794;9.520;2023-04-01T00:59:11;9.80;98.00
4505;DHT22;2265;48.794;9.520;2023-04-01T01:01:42;9.80;98.00
4505;DHT22;2265;48.794;9.520;2023-04-01T01:04:24;9.80;98.00
4505;DHT22;2265;48.794;9.520;2023-04-01T01:06:58;9.80;98.00
4505;DHT22;2265;48.794;9.520;2023-04-01T01:09:41;9.80;98.00
4505;DHT22;2265;48.794;9.520;2023-04-01T01:12:13;9.80;98.00
4505;DHT22;2265;48.794;9.520;2023-04-01T01:14:49;9.80;98.00
4505;DHT22;2265;48.794;9.520;2023-04-01T01:17:27;9.80;98.00
4505;DHT22;2265;48.794;9.520;2023-04-01T01:23:04;9.80;98.00
4505;DHT22;2265;48.794;9.520;2023-04-01T01:25:39;9.80;98.00
4505;DHT22;2265;48.794;9.520;2023-04-01T01:28:29;9.70;98.00
4505;DHT22;2265;48.794;9.520;2023-04-01T01:31:09;9.70;98.00
4505;DHT22;2265;48.794;9.520;2023-04-01T01:33:50;9.60;98.00
4505;DHT22;2265;48.794;9.520;2023-04-01T01:36:23;9.60;98.00
4505;DHT22;2265;48.794;9.520;2023-04-01T01:38:53;9.50;98.00
4505;DHT22;2265;48.794;9.520;2023-04-01T01:41:28;9.50;98.00
4505;DHT22;2265;48.794;9.520;2023-04-01T01:43:57;9.50;98.00
4505;DHT22;2265;48.794;9.520;2023-04-01T01:46:26;9.50;98.00
4505;DHT22;2265;48.794;9.520;2023-04-01T01:48:55;9.60;98.00
4505;DHT22;2265;48.794;9.520;2023-04-01T01:51:27;9.60;98.00
4505;DHT22;2265;48.794;9.520;2023-04-01T01:53:57;9.60;98.00
4505;DHT22;2265;48.794;9.520;2023-04-01T01:56:27;9.50;98.00
4505;DHT22;2265;48.794;9.520;2023-04-01T01:58:58;9.50;98.00
4505;DHT22;2265;48.794;9.520;2023-04-01T02:01:30;9.40;98.00
4505;DHT22;2265;48.794;9.520;2023-04-01T02:04:04;9.40;98.00
4505;DHT22;2265;48.794;9.520;2023-04-01T02:06:37;9.40;98.00
4505;DHT22;2265;48.794;9.520;2023-04-01T02:09:06;9.40;98.00
4505;DHT22;2265;48.794;9.520;2023-04-01T02:11:39;9.40;98.00
4505;DHT22;2265;48.794;9.520;2023-04-01T02:14:11;9.30;98.00
4505;DHT22;2265;48.794;9.520;2023-04-01T02:16:45;9.30;98.00
4505;DHT22;2265;48.794;9.520;2023-04-01T02:19:16;9.30;98.00
4505;DHT22;2265;48.794;9.520;2023-04-01T02:21:54;9.20;98.00
4505;DHT22;2265;48.794;9.520;2023-04-01T02:24:23;9.30;98.00
4505;DHT22;2265;48.794;9.520;2023-04-01T02:26:52;9.30;98.00
4505;DHT22;2265;48.794;9.520;2023-04-01T02:29:21;9.30;98.00
4505;DHT22;2265;48.794;9.520;2023-04-01T02:31:51;9.30;98.00
4505;DHT22;2265;48.794;9.520;2023-04-01T02:34:19;9.30;98.00
4505;DHT22;2265;48.794;9.520;2023-04-01T02:36:47;9.30;98.00
4505;DHT22;2265;48.794;9.520;2023-04-01T02:39:16;9.20;98.00
4505;DHT22;2265;48.794;9.520;2023-04-01T02:41:45;9.20;98.00
4505;DHT22;2265;48.794;9.520;2023-04-01T02:44:15;9.20;98.00
4505;DHT22;2265;48.794;9.520;2023-04-01T02:46:42;9.20;98.00
4505;DHT22;2265;48.794;9.520;2023-04-01T02:49:12;9.20;98.00
4505;DHT22;2265;48.794;9.520;2023-04-01T02:51:39;9.20;98.00
4505;DHT22;2265;48.794;9.520;2023-04-01T02:54:06;9.20;98.00
4505;DHT22;2265;48.794;9.520;2023-04-01T02:56:35;9.20;98.00
4505;DHT22;2265;48.794;9.520;2023-04-01T02:59:02;9.10;98.00
4505;DHT22;2265;48.794;9.520;2023-04-01T03:01:31;9.10;98.00
4505;DHT22;2265;48.794;9.520;2023-04-01T03:03:58;9.10;98.00
4505;DHT22;2265;48.794;9.520;2023-04-01T03:06:27;9.10;98.00
4505;DHT22;2265;48.794;9.520;2023-04-01T03:08:54;9.00;98.00
4505;DHT22;2265;48.794;9.520;2023-04-01T03:11:23;9.10;98.00
4505;DHT22;2265;48.794;9.520;2023-04-01T03:13:53;9.10;98.00
4505;DHT22;2265;48.794;9.520;2023-04-01T03:16:21;9.10;98.00
4505;DHT22;2265;48.794;9.520;2023-04-01T03:18:48;9.10;98.00
4505;DHT22;2265;48.794;9.520;2023-04-01T03:21:19;9.20;98.00
4505;DHT22;2265;48.794;9.520;2023-04-01T03:23:46;9.10;98.00
4505;DHT22;2265;48.794;9.520;2023-04-01T03:26:14;9.10;98.00
4505;DHT22;2265;48.794;9.520;2023-04-01T03:28:41;9.10;98.00
4505;DHT22;2265;48.794;9.520;2023-04-01T03:31:11;9.10;98.00
4505;DHT22;2265;48.794;9.520;2023-04-01T03:33:38;9.10;98.00
4505;DHT22;2265;48.794;9.520;2023-04-01T03:36:06;9.10;98.00
4505;DHT22;2265;48.794;9.520;2023-04-01T03:38:35;9.10;98.00
4505;DHT22;2265;48.794;9.520;2023-04-01T03:41:03;9.10;98.00
4505;DHT22;2265;48.794;9.520;2023-04-01T03:43:30;9.00;98.00
4505;DHT22;2265;48.794;9.520;2023-04-01T03:45:57;9.00;98.00
4505;DHT22;2265;48.794;9.520;2023-04-01T03:48:26;9.10;98.00
4505;DHT22;2265;48.794;9.520;2023-04-01T03:50:54;9.10;98.00
4505;DHT22;2265;48.794;9.520;2023-04-01T03:53:21;9.00;98.00
4505;DHT22;2265;48.794;9.520;2023-04-01T03:55:48;8.90;98.00
4505;DHT22;2265;48.794;9.520;2023-04-01T03:58:17;8.90;98.00
4505;DHT22;2265;48.794;9.520;2023-04-01T04:00:45;8.90;98.00
4505;DHT22;2265;48.794;9.520;2023-04-01T04:03:12;8.90;98.00
4505;DHT22;2265;48.794;9.520;2023-04-01T04:05:47;9.00;98.00
4505;DHT22;2265;48.794;9.520;2023-04-01T04:08:15;9.10;98.00
4505;DHT22;2265;48.794;9.520;2023-04-01T04:10:43;9.00;98.00
4505;DHT22;2265;48.794;9.520;2023-04-01T04:13:12;8.90;98.00
4505;DHT22;2265;48.794;9.520;2023-04-01T04:15:45;8.90;98.00
4505;DHT22;2265;48.794;9.520;2023-04-01T04:18:12;8.90;98.00
4505;DHT22;2265;48.794;9.520;2023-04-01T04:20:43;8.90;98.00
4505;DHT22;2265;48.794;9.520;2023-04-01T04:23:15;8.90;98.00
4505;DHT22;2265;48.794;9.520;2023-04-01T04:25:53;8.90;98.00
4505;DHT22;2265;48.794;9.520;2023-04-01T04:28:21;8.90;98.00
4505;DHT22;2265;48.794;9.520;2023-04-01T04:30:48;8.90;98.00
4505;DHT22;2265;48.794;9.520;2023-04-01T04:33:15;8.90;98.00
4505;DHT22;2265;48.794;9.520;2023-04-01T04:35:42;8.80;98.00
4505;DHT22;2265;48.794;9.520;2023-04-01T04:38:10;8.90;98.00
4505;DHT22;2265;48.794;9.520;2023-04-01T04:40:39;8.90;98.00
4505;DHT22;2265;48.794;9.520;2023-04-01T04:43:06;8.80;98.00
4505;DHT22;2265;48.794;9.520;2023-04-01T04:45:33;8.80;98.00
4505;DHT22;2265;48.794;9.520;2023-04-01T04:48:00;8.80;98.00
4505;DHT22;2265;48.794;9.520;2023-04-01T04:50:27;8.80;98.00
4505;DHT22;2265;48.794;9.520;2023-04-01T04:52:55;8.70;98.00
4505;DHT22;2265;48.794;9.520;2023-04-01T04:55:22;8.70;98.00
4505;DHT22;2265;48.794;9.520;2023-04-01T04:57:51;8.70;98.00
4505;DHT22;2265;48.794;9.520;2023-04-01T05:00:18;8.60;98.00
4505;DHT22;2265;48.794;9.520;2023-04-01T05:02:45;8.70;98.00
4505;DHT22;2265;48.794;9.520;2023-04-01T05:05:12;8.70;98.00
4505;DHT22;2265;48.794;9.520;2023-04-01T05:07:39;8.70;98.00
4505;DHT22;2265;48.794;9.520;2023-04-01T05:10:07;8.80;98.00
4505;DHT22;2265;48.794;9.520;2023-04-01T05:12:34;8.80;98.00
4505;DHT22;2265;48.794;9.520;2023-04-01T05:15:07;8.80;98.00
4505;DHT22;2265;48.794;9.520;2023-04-01T05:17:34;8.80;98.00
4505;DHT22;2265;48.794;9.520;2023-04-01T05:20:01;8.80;98.00
4505;DHT22;2265;48.794;9.520;2023-04-01T05:22:28;8.80;98.00
4505;DHT22;2265;48.794;9.520;2023-04-01T05:24:56;8.80;98.00
4505;DHT22;2265;48.794;9.520;2023-04-01T05:27:23;8.80;98.00
4505;DHT22;2265;48.794;9.520;2023-04-01T05:29:51;8.90;98.00
4505;DHT22;2265;48.794;9.520;2023-04-01T05:32:20;8.90;98.00
4505;DHT22;2265;48.794;9.520;2023-04-01T05:34:47;8.80;98.00
4505;DHT22;2265;48.794;9.520;2023-04-01T05:37:16;8.90;98.00
4505;DHT22;2265;48.794;9.520;2023-04-01T05:39:46;8.90;98.00
4505;DHT22;2265;48.794;9.520;2023-04-01T05:42:13;8.80;98.00
4505;DHT22;2265;48.794;9.520;2023-04-01T05:44:41;8.80;98.00
4505;DHT22;2265;48.794;9.520;2023-04-01T05:47:08;8.80;98.00
4505;DHT22;2265;48.794;9.520;2023-04-01T05:49:37;8.80;98.00
4505;DHT22;2265;48.794;9.520;2023-04-01T05:52:05;8.80;98.00
4505;DHT22;2265;48.794;9.520;2023-04-01T05:54:33;8.90;98.00
4505;DHT22;2265;48.794;9.520;2023-04-01T05:57:00;8.90;98.00
4505;DHT22;2265;48.794;9.520;2023-04-01T05:59:29;8.90;98.00
4505;DHT22;2265;48.794;9.520;2023-04-01T06:01:58;8.90;98.00
4505;DHT22;2265;48.794;9.520;2023-04-01T06:04:25;8.90;98.00
4505;DHT22;2265;48.794;9.520;2023-04-01T06:06:53;9.00;98.00
4505;DHT22;2265;48.794;9.520;2023-04-01T06:09:26;9.20;98.00
4505;DHT22;2265;48.794;9.520;2023-04-01T06:12:16;9.20;98.00
4505;DHT22;2265;48.794;9.520;2023-04-01T06:14:52;9.30;98.00
4505;DHT22;2265;48.794;9.520;2023-04-01T06:17:41;9.30;98.00
4505;DHT22;2265;48.794;9.520;2023-04-01T06:20:15;9.40;98.00
4505;DHT22;2265;48.794;9.520;2023-04-01T06:22:57;9.30;98.00
4505;DHT22;2265;48.794;9.520;2023-04-01T06:25:36;9.30;98.00
4505;DHT22;2265;48.794;9.520;2023-04-01T06:31:25;9.40;98.00
4505;DHT22;2265;48.794;9.520;2023-04-01T06:34:08;9.50;98.00
4505;DHT22;2265;48.794;9.520;2023-04-01T06:37:03;9.50;98.00
4505;DHT22;2265;48.794;9.520;2023-04-01T06:39:54;9.60;98.00
4505;DHT22;2265;48.794;9.520;2023-04-01T06:42:43;9.70;98.00
4505;DHT22;2265;48.794;9.520;2023-04-01T06:45:26;9.80;98.00
4505;DHT22;2265;48.794;9.520;2023-04-01T06:48:10;9.90;98.00
4505;DHT22;2265;48.794;9.520;2023-04-01T06:50:47;9.90;98.00
4505;DHT22;2265;48.794;9.520;2023-04-01T06:53:19;10.00;98.00
4505;DHT22;2265;48.794;9.520;2023-04-01T06:55:52;10.00;98.00
4505;DHT22;2265;48.794;9.520;2023-04-01T06:58:24;10.00;98.00
4505;DHT22;2265;48.794;9.520;2023-04-01T07:00:54;10.00;98.00
4505;DHT22;2265;48.794;9.520;2023-04-01T07:03:29;10.00;98.00
4505;DHT22;2265;48.794;9.520;2023-04-01T07:06:02;10.00;98.00
4505;DHT22;2265;48.794;9.520;2023-04-01T07:08:31;10.00;98.00
4505;DHT22;2265;48.794;9.520;2023-04-01T07:11:05;10.00;98.00
4505;DHT22;2265;48.794;9.520;2023-04-01T07:13:35;10.00;98.00
4505;DHT22;2265;48.794;9.520;2023-04-01T07:16:10;10.00;98.00
4505;DHT22;2265;48.794;9.520;2023-04-01T07:18:42;10.10;98.00
4505;DHT22;2265;48.794;9.520;2023-04-01T07:21:22;10.10;98.00
4505;DHT22;2265;48.794;9.520;2023-04-01T07:23:51;10.10;98.00
4505;DHT22;2265;48.794;9.520;2023-04-01T07:26:22;10.20;98.00
4505;DHT22;2265;48.794;9.520;2023-04-01T07:28:51;10.20;98.00
4505;DHT22;2265;48.794;9.520;2023-04-01T07:31:32;10.30;98.00
4505;DHT22;2265;48.794;9.520;2023-04-01T07:34:11;10.20;98.00
4505;DHT22;2265;48.794;9.520;2023-04-01T07:36:43;10.20;98.00
4505;DHT22;2265;48.794;9.520;2023-04-01T07:39:26;10.30;98.00
4505;DHT22;2265;48.794;9.520;2023-04-01T07:42:02;10.30;98.00
4505;DHT22;2265;48.794;9.520;2023-04-01T07:44:40;10.30;98.00
4505;DHT22;2265;48.794;9.520;2023-04-01T07:47:20;10.40;98.00
4505;DHT22;2265;48.794;9.520;2023-04-01T07:49:57;10.40;98.00
4505;DHT22;2265;48.794;9.520;2023-04-01T07:52:35;10.40;98.00
4505;DHT22;2265;48.794;9.520;2023-04-01T07:55:09;10.40;98.00
4505;DHT22;2265;48.794;9.520;2023-04-01T07:57:49;10.40;98.00
4505;DHT22;2265;48.794;9.520;2023-04-01T08:00:24;10.30;98.00
4505;DHT22;2265;48.794;9.520;2023-04-01T08:03:08;10.40;98.00
4505;DHT22;2265;48.794;9.520;2023-04-01T08:05:47;10.40;98.00
4505;DHT22;2265;48.794;9.520;2023-04-01T08:08:22;10.40;98.00
4505;DHT22;2265;48.794;9.520;2023-04-01T08:10:56;10.40;98.00
4505;DHT22;2265;48.794;9.520;2023-04-01T08:13:34;10.40;98.00
4505;DHT22;2265;48.794;9.520;2023-04-01T08:16:11;10.60;98.00
4505;DHT22;2265;48.794;9.520;2023-04-01T08:18:50;10.70;98.00
4505;DHT22;2265;48.794;9.520;2023-04-01T08:21:24;10.70;98.00
4505;DHT22;2265;48.794;9.520;2023-04-01T08:24:10;10.60;98.00
4505;DHT22;2265;48.794;9.520;2023-04-01T08:26:40;10.60;98.00
4505;DHT22;2265;48.794;9.520;2023-04-01T08:29:16;10.60;98.00
4505;DHT22;2265;48.794;9.520;2023-04-01T08:31:49;10.60;98.00
4505;DHT22;2265;48.794;9.520;2023-04-01T08:34:20;10.60;98.00
4505;DHT22;2265;48.794;9.520;2023-04-01T08:36:51;10.70;98.00
4505;DHT22;2265;48.794;9.520;2023-04-01T08:39:29;10.60;98.00
4505;DHT22;2265;48.794;9.520;2023-04-01T08:42:22;10.70;98.00
4505;DHT22;2265;48.794;9.520;2023-04-01T08:45:15;10.70;98.00
4505;DHT22;2265;48.794;9.520;2023-04-01T08:51:02;10.80;98.00
4505;DHT22;2265;48.794;9.520;2023-04-01T08:56:29;10.80;98.00
4505;DHT22;2265;48.794;9.520;2023-04-01T08:59:16;10.70;98.00
4505;DHT22;2265;48.794;9.520;2023-04-01T09:02:21;10.70;98.00
4505;DHT22;2265;48.794;9.520;2023-04-01T09:05:26;10.70;98.00
4505;DHT22;2265;48.794;9.520;2023-04-01T09:08:06;10.70;98.00
4505;DHT22;2265;48.794;9.520;2023-04-01T09:11:03;10.50;98.00
4505;DHT22;2265;48.794;9.520;2023-04-01T09:17:06;10.40;98.00
4505;DHT22;2265;48.794;9.520;2023-04-01T09:19:50;10.40;98.00
4505;DHT22;2265;48.794;9.520;2023-04-01T09:22:37;10.20;98.00
4505;DHT22;2265;48.794;9.520;2023-04-01T09:25:29;10.10;98.00
4505;DHT22;2265;48.794;9.520;2023-04-01T09:28:00;10.10;98.00
4505;DHT22;2265;48.794;9.520;2023-04-01T09:30:45;10.10;98.00
4505;DHT22;2265;48.794;9.520;2023-04-01T09:33:46;10.00;98.00
4505;DHT22;2265;48.794;9.520;2023-04-01T09:36:26;9.90;98.00
4505;DHT22;2265;48.794;9.520;2023-04-01T09:39:12;10.00;98.00
4505;DHT22;2265;48.794;9.520;2023-04-01T09:42:02;10.00;98.00
4505;DHT22;2265;48.794;9.520;2023-04-01T09:44:34;10.10;98.00
4505;DHT22;2265;48.794;9.520;2023-04-01T09:47:14;10.10;98.00
4505;DHT22;2265;48.794;9.520;2023-04-01T09:50:16;10.20;98.00
4505;DHT22;2265;48.794;9.520;2023-04-01T09:52:57;10.20;98.00
4505;DHT22;2265;48.794;9.520;2023-04-01T09:56:03;10.20;98.00
4505;DHT22;2265;48.794;9.520;2023-04-01T09:59:03;10.10;98.00
4505;DHT22;2265;48.794;9.520;2023-04-01T10:02:27;10.20;98.00
4505;DHT22;2265;48.794;9.520;2023-04-01T10:05:27;10.20;98.00
4505;DHT22;2265;48.794;9.520;2023-04-01T10:08:37;10.30;98.00
4505;DHT22;2265;48.794;9.520;2023-04-01T10:14:35;10.30;98.00
4505;DHT22;2265;48.794;9.520;2023-04-01T10:17:33;10.20;98.00
4505;DHT22;2265;48.794;9.520;2023-04-01T10:20:22;10.20;98.00
4505;DHT22;2265;48.794;9.520;2023-04-01T10:23:27;10.20;98.00
4505;DHT22;2265;48.794;9.520;2023-04-01T10:26:22;10.20;98.00
4505;DHT22;2265;48.794;9.520;2023-04-01T10:29:24;10.10;98.00
4505;DHT22;2265;48.794;9.520;2023-04-01T10:32:48;10.10;98.00
4505;DHT22;2265;48.794;9.520;2023-04-01T10:35:50;10.20;98.00
4505;DHT22;2265;48.794;9.520;2023-04-01T10:38:51;10.20;98.00
4505;DHT22;2265;48.794;9.520;2023-04-01T10:44:48;10.20;98.00
4505;DHT22;2265;48.794;9.520;2023-04-01T10:51:12;10.30;98.00
4505;DHT22;2265;48.794;9.520;2023-04-01T10:56:49;10.30;98.00
4505;DHT22;2265;48.794;9.520;2023-04-01T10:59:35;10.30;98.00
4505;DHT22;2265;48.794;9.520;2023-04-01T11:02:56;10.40;98.00
4505;DHT22;2265;48.794;9.520;2023-04-01T11:09:03;10.20;98.00
4505;DHT22;2265;48.794;9.520;2023-04-01T11:12:24;10.10;98.00
4505;DHT22;2265;48.794;9.520;2023-04-01T11:18:49;10.00;98.00
4505;DHT22;2265;48.794;9.520;2023-04-01T11:21:46;10.00;98.00
4505;DHT22;2265;48.794;9.520;2023-04-01T11:24:42;9.90;98.00
4505;DHT22;2265;48.794;9.520;2023-04-01T11:27:25;9.90;98.00
4505;DHT22;2265;48.794;9.520;2023-04-01T11:30:05;9.80;98.00
4505;DHT22;2265;48.794;9.520;2023-04-01T11:32:43;9.90;98.00
4505;DHT22;2265;48.794;9.520;2023-04-01T11:35:29;10.00;98.00
4505;DHT22;2265;48.794;9.520;2023-04-01T11:38:10;10.00;98.00
4505;DHT22;2265;48.794;9.520;2023-04-01T11:40:47;10.00;98.00
4505;DHT22;2265;48.794;9.520;2023-04-01T11:43:23;10.00;98.00
4505;DHT22;2265;48.794;9.520;2023-04-01T11:45:58;10.00;98.00
4505;DHT22;2265;48.794;9.520;2023-04-01T11:48:49;10.00;98.00
4505;DHT22;2265;48.794;9.520;2023-04-01T11:54:20;10.10;98.00
4505;DHT22;2265;48.794;9.520;2023-04-01T11:57:13;10.20;98.00
4505;DHT22;2265;48.794;9.520;2023-04-01T11:59:56;10.30;98.00
4505;DHT22;2265;48.794;9.520;2023-04-01T12:02:31;10.30;98.00
4505;DHT22;2265;48.794;9.520;2023-04-01T12:05:14;10.40;98.00
4505;DHT22;2265;48.794;9.520;2023-04-01T12:08:02;10.40;98.00
4505;DHT22;2265;48.794;9.520;2023-04-01T12:10:37;10.40;98.00
4505;DHT22;2265;48.794;9.520;2023-04-01T12:13:18;10.60;98.00
4505;DHT22;2265;48.794;9.520;2023-04-01T12:16:15;10.60;98.00
4505;DHT22;2265;48.794;9.520;2023-04-01T12:18:53;10.60;98.00
4505;DHT22;2265;48.794;9.520;2023-04-01T12:21:28;10.70;98.00
4505;DHT22;2265;48.794;9.520;2023-04-01T12:24:22;10.70;98.00
4505;DHT22;2265;48.794;9.520;2023-04-01T12:27:10;10.70;98.00
4505;DHT22;2265;48.794;9.520;2023-04-01T12:29:51;10.70;98.00
4505;DHT22;2265;48.794;9.520;2023-04-01T12:32:29;10.70;98.00
4505;DHT22;2265;48.794;9.520;2023-04-01T12:35:15;10.80;98.00
4505;DHT22;2265;48.794;9.520;2023-04-01T12:37:50;10.80;98.00
4505;DHT22;2265;48.794;9.520;2023-04-01T12:40:36;10.70;98.00
4505;DHT22;2265;48.794;9.520;2023-04-01T12:43:29;10.80;98.00
4505;DHT22;2265;48.794;9.520;2023-04-01T12:46:08;10.80;98.00
4505;DHT22;2265;48.794;9.520;2023-04-01T12:51:50;10.70;98.00
4505;DHT22;2265;48.794;9.520;2023-04-01T12:54:48;10.70;98.00
4505;DHT22;2265;48.794;9.520;2023-04-01T13:00:27;10.70;98.00
4505;DHT22;2265;48.794;9.520;2023-04-01T13:03:11;10.70;98.00
4505;DHT22;2265;48.794;9.520;2023-04-01T13:09:02;10.70;98.00
4505;DHT22;2265;48.794;9.520;2023-04-01T13:11:40;10.70;98.00
4505;DHT22;2265;48.794;9.520;2023-04-01T13:14:50;10.70;98.00
4505;DHT22;2265;48.794;9.520;2023-04-01T13:17:23;10.70;98.00
4505;DHT22;2265;48.794;9.520;2023-04-01T13:20:02;10.80;98.00
4505;DHT22;2265;48.794;9.520;2023-04-01T13:22:40;10.80;98.00
4505;DHT22;2265;48.794;9.520;2023-04-01T13:25:17;10.80;98.00
4505;DHT22;2265;48.794;9.520;2023-04-01T13:27:51;10.80;98.00
4505;DHT22;2265;48.794;9.520;2023-04-01T13:30:27;10.90;98.00
4505;DHT22;2265;48.794;9.520;2023-04-01T13:32:59;10.90;98.00
4505;DHT22;2265;48.794;9.520;2023-04-01T13:35:36;11.00;98.00
4505;DHT22;2265;48.794;9.520;2023-04-01T13:41:12;11.10;98.00
4505;DHT22;2265;48.794;9.520;2023-04-01T13:43:45;11.00;98.00
4505;DHT22;2265;48.794;9.520;2023-04-01T13:46:42;11.00;98.00
4505;DHT22;2265;48.794;9.520;2023-04-01T13:49:36;11.00;98.00
4505;DHT22;2265;48.794;9.520;2023-04-01T13:55:30;11.00;98.00
4505;DHT22;2265;48.794;9.520;2023-04-01T13:58:19;11.00;98.00
4505;DHT22;2265;48.794;9.520;2023-04-01T14:00:55;11.10;98.00
4505;DHT22;2265;48.794;9.520;2023-04-01T14:03:57;11.10;98.00
4505;DHT22;2265;48.794;9.520;2023-04-01T14:06:40;11.20;98.00
4505;DHT22;2265;48.794;9.520;2023-04-01T14:09:43;11.30;98.00
4505;DHT22;2265;48.794;9.520;2023-04-01T14:12:22;11.30;98.00
4505;DHT22;2265;48.794;9.520;2023-04-01T14:15:16;11.30;98.00
4505;DHT22;2265;48.794;9.520;2023-04-01T14:17:57;11.20;98.00
4505;DHT22;2265;48.794;9.520;2023-04-01T14:20:37;11.20;98.00
4505;DHT22;2265;48.794;9.520;2023-04-01T14:26:19;11.20;98.00
4505;DHT22;2265;48.794;9.520;2023-04-01T14:28:55;11.20;98.00
4505;DHT22;2265;48.794;9.520;2023-04-01T14:31:47;11.10;98.00
4505;DHT22;2265;48.794;9.520;2023-04-01T14:34:28;11.10;98.00
4505;DHT22;2265;48.794;9.520;2023-04-01T14:37:15;11.00;98.00
4505;DHT22;2265;48.794;9.520;2023-04-01T14:40:03;11.00;98.00
4505;DHT22;2265;48.794;9.520;2023-04-01T14:42:53;11.10;98.00
4505;DHT22;2265;48.794;9.520;2023-04-01T14:48:32;11.20;98.00
4505;DHT22;2265;48.794;9.520;2023-04-01T14:51:08;11.00;98.00
4505;DHT22;2265;48.794;9.520;2023-04-01T14:53:38;11.00;98.00
4505;DHT22;2265;48.794;9.520;2023-04-01T14:56:11;11.10;98.00
4505;DHT22;2265;48.794;9.520;2023-04-01T14:58:47;11.10;98.00
4505;DHT22;2265;48.794;9.520;2023-04-01T15:01:25;11.10;98.00
4505;DHT22;2265;48.794;9.520;2023-04-01T15:04:06;10.90;98.00
4505;DHT22;2265;48.794;9.520;2023-04-01T15:06:56;10.80;98.00
4505;DHT22;2265;48.794;9.520;2023-04-01T15:09:36;10.80;98.00
4505;DHT22;2265;48.794;9.520;2023-04-01T15:12:17;10.90;98.00
4505;DHT22;2265;48.794;9.520;2023-04-01T15:15:14;11.00;98.00
4505;DHT22;2265;48.794;9.520;2023-04-01T15:17:55;10.80;98.00
4505;DHT22;2265;48.794;9.520;2023-04-01T15:20:42;10.60;98.00
4505;DHT22;2265;48.794;9.520;2023-04-01T15:23:33;10.60;98.00
4505;DHT22;2265;48.794;9.520;2023-04-01T15:26:22;10.60;98.00
4505;DHT22;2265;48.794;9.520;2023-04-01T15:29:11;10.40;98.00
4505;DHT22;2265;48.794;9.520;2023-04-01T15:31:50;10.50;98.00
4505;DHT22;2265;48.794;9.520;2023-04-01T15:34:32;10.50;98.00
4505;DHT22;2265;48.794;9.520;2023-04-01T15:37:07;10.60;98.00
4505;DHT22;2265;48.794;9.520;2023-04-01T15:39:46;10.60;98.00
4505;DHT22;2265;48.794;9.520;2023-04-01T15:42:30;10.50;98.00
4505;DHT22;2265;48.794;9.520;2023-04-01T15:45:08;10.50;98.00
4505;DHT22;2265;48.794;9.520;2023-04-01T15:47:42;10.60;98.00
4505;DHT22;2265;48.794;9.520;2023-04-01T15:50:48;10.60;98.00
4505;DHT22;2265;48.794;9.520;2023-04-01T15:56:28;10.70;98.00
4505;DHT22;2265;48.794;9.520;2023-04-01T15:59:06;10.70;98.00
4505;DHT22;2265;48.794;9.520;2023-04-01T16:01:44;10.70;98.00
4505;DHT22;2265;48.794;9.520;2023-04-01T16:04:35;10.70;98.00
4505;DHT22;2265;48.794;9.520;2023-04-01T16:07:10;10.60;98.00
4505;DHT22;2265;48.794;9.520;2023-04-01T16:09:56;10.60;98.00
4505;DHT22;2265;48.794;9.520;2023-04-01T16:12:44;10.60;98.00
4505;DHT22;2265;48.794;9.520;2023-04-01T16:15:22;10.70;98.00
4505;DHT22;2265;48.794;9.520;2023-04-01T16:20:53;10.70;98.00
4505;DHT22;2265;48.794;9.520;2023-04-01T16:23:26;10.80;98.00
4505;DHT22;2265;48.794;9.520;2023-04-01T16:26:03;10.80;98.00
4505;DHT22;2265;48.794;9.520;2023-04-01T16:28:36;10.80;98.00
4505;DHT22;2265;48.794;9.520;2023-04-01T16:31:08;10.80;98.00
4505;DHT22;2265;48.794;9.520;2023-04-01T16:33:44;10.80;98.00
4505;DHT22;2265;48.794;9.520;2023-04-01T16:36:24;10.80;98.00
4505;DHT22;2265;48.794;9.520;2023-04-01T16:39:05;10.80;98.00
4505;DHT22;2265;48.794;9.520;2023-04-01T16:41:35;10.80;98.00
4505;DHT22;2265;48.794;9.520;2023-04-01T16:44:14;10.90;98.00
4505;DHT22;2265;48.794;9.520;2023-04-01T16:46:46;10.90;98.00
4505;DHT22;2265;48.794;9.520;2023-04-01T16:49:31;10.90;98.00
4505;DHT22;2265;48.794;9.520;2023-04-01T16:52:29;10.90;98.00
4505;DHT22;2265;48.794;9.520;2023-04-01T16:55:02;10.90;98.00
4505;DHT22;2265;48.794;9.520;2023-04-01T16:57:36;10.90;98.00
4505;DHT22;2265;48.794;9.520;2023-04-01T17:00:16;10.90;98.00
4505;DHT22;2265;48.794;9.520;2023-04-01T17:02:51;10.90;98.00
4505;DHT22;2265;48.794;9.520;2023-04-01T17:05:20;10.90;98.00
4505;DHT22;2265;48.794;9.520;2023-04-01T17:08:03;10.80;98.00
4505;DHT22;2265;48.794;9.520;2023-04-01T17:10:51;10.80;98.00
4505;DHT22;2265;48.794;9.520;2023-04-01T17:13:33;10.80;98.00
4505;DHT22;2265;48.794;9.520;2023-04-01T17:16:25;10.80;98.00
4505;DHT22;2265;48.794;9.520;2023-04-01T17:19:04;10.70;98.00
4505;DHT22;2265;48.794;9.520;2023-04-01T17:21:49;10.80;98.00
4505;DHT22;2265;48.794;9.520;2023-04-01T17:27:17;10.70;98.00
4505;DHT22;2265;48.794;9.520;2023-04-01T17:30:03;10.70;98.00
4505;DHT22;2265;48.794;9.520;2023-04-01T17:32:47;10.70;98.00
4505;DHT22;2265;48.794;9.520;2023-04-01T17:35:20;10.70;98.00
4505;DHT22;2265;48.794;9.520;2023-04-01T17:37:59;10.70;98.00
4505;DHT22;2265;48.794;9.520;2023-04-01T17:40:44;10.70;98.00
4505;DHT22;2265;48.794;9.520;2023-04-01T17:43:24;10.70;98.00
4505;DHT22;2265;48.794;9.520;2023-04-01T17:45:57;10.70;98.00
4505;DHT22;2265;48.794;9.520;2023-04-01T17:48:37;10.60;98.00
4505;DHT22;2265;48.794;9.520;2023-04-01T17:51:21;10.60;98.00
4505;DHT22;2265;48.794;9.520;2023-04-01T17:54:03;10.60;98.00
4505;DHT22;2265;48.794;9.520;2023-04-01T17:56:41;10.60;98.00
4505;DHT22;2265;48.794;9.520;2023-04-01T17:59:17;10.60;98.00
4505;DHT22;2265;48.794;9.520;2023-04-01T18:01:56;10.50;98.00
4505;DHT22;2265;48.794;9.520;2023-04-01T18:04:44;10.50;98.00
4505;DHT22;2265;48.794;9.520;2023-04-01T18:07:41;10.50;98.00
4505;DHT22;2265;48.794;9.520;2023-04-01T18:10:19;10.50;98.00
4505;DHT22;2265;48.794;9.520;2023-04-01T18:13:08;10.50;98.00
4505;DHT22;2265;48.794;9.520;2023-04-01T18:15:45;10.50;98.00
4505;DHT22;2265;48.794;9.520;2023-04-01T18:18:34;10.50;98.00
4505;DHT22;2265;48.794;9.520;2023-04-01T18:21:07;10.50;98.00
4505;DHT22;2265;48.794;9.520;2023-04-01T18:23:46;10.50;98.00
4505;DHT22;2265;48.794;9.520;2023-04-01T18:26:21;10.50;98.00
4505;DHT22;2265;48.794;9.520;2023-04-01T18:28:54;10.40;98.00